Time;durP1;ratioP1;P1;durP2;ratioP2;P2;SDS_P1;SDS_P2;PMS_P1;PMS_P2;Temp;Humidity;BMP_temperature;BMP_pressure;BME280_temperature;BME280_humidity;BME280_pressure;Samples;Min_cycle;Max_cycle;Signal;HPM_P1;HPM_P2
2022/09/21 00:00:16;;;;;;;1.85;1.85;;;;;;;9.04;99.29;62930.34;4994851;28;20287;-79
2022/09/21 00:02:44;;;;;;;1.85;1.75;;;;;;;9.05;99.92;62931.38;4989591;28;20262;-78
2022/09/21 00:05:11;;;;;;;4.30;2.00;;;;;;;9.03;100.00;62934.91;4975590;28;20388;-77
2022/09/21 00:07:38;;;;;;;2.17;2.08;;;;;;;9.01;100.00;62929.78;4983919;28;20220;-78
2022/09/21 00:10:05;;;;;;;2.42;2.33;;;;;;;9.02;100.00;62928.28;4990242;28;20203;-78
2022/09/21 00:12:32;;;;;;;2.25;2.15;;;;;;;8.98;100.00;62924.66;4981377;28;20260;-79
2022/09/21 00:14:59;;;;;;;1.52;1.50;;;;;;;9.00;100.00;62931.28;4989788;28;20210;-79
2022/09/21 00:17:28;;;;;;;2.20;2.10;;;;;;;8.91;100.00;62922.50;4974901;28;20232;-80
2022/09/21 00:19:56;;;;;;;2.40;2.30;;;;;;;8.90;100.00;62915.88;4984664;28;20259;-78
2022/09/21 00:22:23;;;;;;;2.85;2.03;;;;;;;8.87;100.00;62912.78;4997971;28;20220;-79
2022/09/21 00:24:50;;;;;;;2.28;2.17;;;;;;;8.84;100.00;62910.19;4989499;28;20199;-78
2022/09/21 00:27:17;;;;;;;2.35;2.25;;;;;;;8.80;100.00;62908.59;4981559;28;20308;-79
2022/09/21 00:29:43;;;;;;;2.13;2.03;;;;;;;8.76;100.00;62904.47;5000051;28;20207;-78
2022/09/21 00:32:10;;;;;;;2.60;2.40;;;;;;;8.78;100.00;62906.53;4999795;28;20220;-78
2022/09/21 00:34:37;;;;;;;2.45;2.22;;;;;;;8.73;100.00;62895.78;4980923;28;20436;-78
2022/09/21 00:37:05;;;;;;;2.38;2.28;;;;;;;8.71;100.00;62899.31;4987411;28;20227;-77
2022/09/21 00:39:32;;;;;;;2.90;2.70;;;;;;;8.71;100.00;62894.22;5008285;28;20229;-78
2022/09/21 00:41:59;;;;;;;3.83;3.63;;;;;;;8.69;100.00;62894.69;4983768;28;20507;-78
2022/09/21 00:44:31;;;;;;;2.53;2.42;;;;;;;8.74;100.00;62896.78;4984603;28;20212;-79
2022/09/21 00:47:04;;;;;;;2.40;2.30;;;;;;;8.70;100.00;62895.19;4989057;28;20235;-78
2022/09/21 00:49:32;;;;;;;2.38;2.28;;;;;;;8.67;100.00;62889.56;5002177;28;20195;-79
2022/09/21 00:52:04;;;;;;;3.47;2.35;;;;;;;8.67;100.00;62894.63;4970344;28;20255;-79
2022/09/21 00:54:38;;;;;;;3.08;2.58;;;;;;;8.59;100.00;62884.38;4975322;28;20233;-78
2022/09/21 00:57:06;;;;;;;2.22;2.20;;;;;;;8.56;100.00;62883.78;4968614;28;20542;-78
2022/09/21 00:59:37;;;;;;;2.45;2.30;;;;;;;8.57;100.00;62879.22;4987873;28;20204;-79
2022/09/21 01:02:05;;;;;;;2.60;2.50;;;;;;;8.51;100.00;62875.59;4973364;28;20223;-78
2022/09/21 01:04:33;;;;;;;3.25;3.00;;;;;;;8.52;100.00;62874.06;4967468;28;20212;-78
2022/09/21 01:07:05;;;;;;;2.35;2.25;;;;;;;8.49;100.00;62874.00;4966430;29;20424;-78
2022/09/21 01:09:35;;;;;;;2.85;2.75;;;;;;;8.38;100.00;62860.13;4969609;28;20201;-78
2022/09/21 01:12:11;;;;;;;3.10;2.90;;;;;;;8.29;100.00;62855.91;4985853;28;20551;-77
2022/09/21 01:14:55;;;;;;;3.33;3.13;;;;;;;8.36;100.00;62860.06;4990065;28;20259;-77
2022/09/21 01:17:36;;;;;;;2.70;2.60;;;;;;;8.37;100.00;62859.09;4986202;28;20219;-79
2022/09/21 01:20:32;;;;;;;2.80;2.70;;;;;;;8.38;100.00;62859.59;4975971;28;20201;-77
2022/09/21 01:23:15;;;;;;;2.65;2.55;;;;;;;8.36;100.00;62865.66;4977104;28;20223;-78
2022/09/21 01:26:01;;;;;;;3.88;3.08;;;;;;;8.27;100.00;62846.22;4985092;28;20405;-78
2022/09/21 01:28:37;;;;;;;3.70;2.53;;;;;;;8.27;100.00;62853.31;4980531;28;20238;-77
2022/09/21 01:31:12;;;;;;;3.25;3.05;;;;;;;8.23;100.00;62846.63;4971883;28;20363;-80
2022/09/21 01:33:46;;;;;;;3.47;3.28;;;;;;;8.14;100.00;62837.84;4971129;28;20294;-80
2022/09/21 01:36:17;;;;;;;3.15;2.95;;;;;;;8.15;100.00;62841.94;4985402;28;20200;-77
2022/09/21 01:38:48;;;;;;;2.85;2.75;;;;;;;8.09;100.00;62830.16;4969788;28;20216;-79
2022/09/21 01:41:18;;;;;;;3.53;3.33;;;;;;;8.06;100.00;62832.13;4981253;28;20551;-77
2022/09/21 01:43:49;;;;;;;3.22;3.03;;;;;;;8.12;100.00;62835.78;5006830;28;20219;-77
2022/09/21 01:46:20;;;;;;;3.17;2.97;;;;;;;8.08;100.00;62829.13;4991810;28;20231;-77
2022/09/21 01:48:52;;;;;;;3.25;3.05;;;;;;;8.06;100.00;62827.03;4982607;28;20571;-78
2022/09/21 01:51:21;;;;;;;3.17;2.97;;;;;;;7.95;100.00;62818.75;4982723;28;20208;-77
2022/09/21 01:53:52;;;;;;;3.35;3.20;;;;;;;7.96;100.00;62816.72;4987326;28;20239;-77
2022/09/21 01:56:23;;;;;;;3.63;3.22;;;;;;;7.95;100.00;62816.22;4967844;28;20201;-78
2022/09/21 01:58:59;;;;;;;3.30;2.95;;;;;;;7.91;100.00;62816.63;4981196;28;20493;-79
2022/09/21 02:01:31;;;;;;;3.40;3.20;;;;;;;7.94;100.00;62817.72;5007590;28;20199;-77
2022/09/21 02:04:02;;;;;;;2.92;2.83;;;;;;;7.93;100.00;62814.16;4992459;28;20216;-76
2022/09/21 02:06:30;;;;;;;3.17;2.97;;;;;;;7.85;100.00;62808.41;4983800;28;20282;-78
2022/09/21 02:08:57;;;;;;;3.25;3.05;;;;;;;7.88;100.00;62814.06;4991106;28;20203;-78
2022/09/21 02:11:24;;;;;;;3.35;3.13;;;;;;;7.88;100.00;62811.53;5004439;28;20203;-77
2022/09/21 02:13:53;;;;;;;3.45;3.25;;;;;;;7.83;100.00;62806.38;4988763;28;20200;-78
2022/09/21 02:16:42;;;;;;;4.82;3.67;;;;;;;7.87;100.00;62804.88;4985575;28;20204;-79
2022/09/21 02:19:14;;;;;;;3.30;3.10;;;;;;;7.83;100.00;62806.38;4969165;28;20212;-77
2022/09/21 02:21:52;;;;;;;3.50;3.30;;;;;;;7.84;100.00;62804.34;4972719;28;20213;-78
2022/09/21 02:24:27;;;;;;;3.33;3.15;;;;;;;7.77;100.00;62795.09;4966121;29;20216;-77
2022/09/21 02:27:04;;;;;;;4.43;3.47;;;;;;;7.63;100.00;62785.72;4971220;28;20248;-78
2022/09/21 02:29:42;;;;;;;4.10;3.83;;;;;;;7.46;100.00;62767.63;4967074;29;20216;-82
2022/09/21 02:32:24;;;;;;;5.20;4.80;;;;;;;7.47;100.00;62771.72;4968193;28;20224;-80
2022/09/21 02:34:59;;;;;;;5.30;4.80;;;;;;;7.33;100.00;62754.22;4977150;28;20235;-80
2022/09/21 02:37:35;;;;;;;5.05;4.65;;;;;;;7.29;100.00;62748.09;4977069;28;20244;-82
2022/09/21 02:40:08;;;;;;;4.93;4.63;;;;;;;7.29;100.00;62752.63;4969878;29;20204;-79
2022/09/21 02:42:42;;;;;;;6.35;4.47;;;;;;;7.29;100.00;62753.16;4971792;29;20221;-82
2022/09/21 02:45:19;;;;;;;5.80;4.90;;;;;;;7.24;100.00;62748.00;4987274;28;20204;-81
2022/09/21 02:47:55;;;;;;;6.32;5.03;;;;;;;7.28;100.00;62752.13;4970143;29;20240;-79
2022/09/21 02:50:26;;;;;;;5.20;4.80;;;;;;;7.25;100.00;62745.97;4971377;29;20239;-81
2022/09/21 02:52:55;;;;;;;10.18;5.13;;;;;;;7.20;100.00;62741.31;4973032;28;20223;-79
2022/09/21 02:55:22;;;;;;;4.93;4.53;;;;;;;7.18;100.00;62741.78;4983022;28;20211;-79
2022/09/21 02:57:50;;;;;;;4.93;4.25;;;;;;;7.03;100.00;62723.78;4971213;29;20549;-81
2022/09/21 03:00:17;;;;;;;5.30;4.82;;;;;;;7.03;100.00;62723.78;4968057;29;20211;-76
2022/09/21 03:02:45;;;;;;;5.22;4.72;;;;;;;6.93;100.00;62713.47;4985408;28;20243;-77
2022/09/21 03:05:15;;;;;;;5.28;4.88;;;;;;;6.91;100.00;62709.41;4974954;28;20235;-78
2022/09/21 03:07:42;;;;;;;6.10;5.47;;;;;;;6.90;100.00;62707.84;4967274;29;20243;-77
2022/09/21 03:10:10;;;;;;;4.97;4.57;;;;;;;6.83;100.00;62705.69;4973092;28;20425;-77
2022/09/21 03:12:37;;;;;;;5.88;5.30;;;;;;;6.80;100.00;62700.56;4968743;28;20268;-78
2022/09/21 03:15:04;;;;;;;5.45;5.00;;;;;;;6.79;100.00;62697.03;4969385;29;20497;-76
2022/09/21 03:17:31;;;;;;;5.63;4.78;;;;;;;6.77;100.00;62696.97;4967279;28;20268;-77
2022/09/21 03:19:58;;;;;;;5.75;5.13;;;;;;;6.70;100.00;62689.75;4980493;28;20512;-77
2022/09/21 03:22:26;;;;;;;5.72;5.10;;;;;;;6.68;100.00;62682.63;5007763;28;20227;-78
2022/09/21 03:24:56;;;;;;;5.75;5.22;;;;;;;6.64;100.00;62683.56;4967857;28;20208;-77
2022/09/21 03:27:23;;;;;;;7.25;4.90;;;;;;;6.56;100.00;62675.31;4972962;28;20303;-77
2022/09/21 03:29:50;;;;;;;4.60;4.20;;;;;;;6.49;100.00;62668.09;4984676;28;20199;-78
2022/09/21 03:32:17;;;;;;;4.90;4.50;;;;;;;6.48;100.00;62672.13;5006171;28;20257;-77
2022/09/21 03:34:45;;;;;;;6.00;5.40;;;;;;;6.45;100.00;62658.91;5009391;28;20258;-78
2022/09/21 03:37:13;;;;;;;5.07;4.70;;;;;;;6.42;100.00;62661.38;4993686;28;20227;-79
2022/09/21 03:39:41;;;;;;;4.80;4.50;;;;;;;6.42;100.00;62663.41;4983746;28;20223;-77
2022/09/21 03:42:09;;;;;;;5.63;5.13;;;;;;;6.40;100.00;62656.78;4988322;28;20224;-77
2022/09/21 03:44:37;;;;;;;7.30;5.25;;;;;;;6.44;100.00;62662.94;4989180;28;20200;-77
2022/09/21 03:47:05;;;;;;;5.20;4.80;;;;;;;6.44;100.00;62660.41;4980891;28;20277;-77
2022/09/21 03:49:32;;;;;;;5.13;4.72;;;;;;;6.39;100.00;62660.31;4967650;29;20251;-77
2022/09/21 03:52:01;;;;;;;5.47;5.07;;;;;;;6.47;100.00;62660.97;4984501;28;20290;-79
2022/09/21 03:54:30;;;;;;;5.55;5.05;;;;;;;6.45;100.00;62659.44;4986885;28;20568;-81
2022/09/21 03:57:00;;;;;;;5.43;5.03;;;;;;;6.45;100.00;62663.97;4986806;28;20224;-82
2022/09/21 03:59:27;;;;;;;6.70;4.97;;;;;;;6.46;100.00;62662.47;4990133;28;20220;-80
2022/09/21 04:01:55;;;;;;;5.78;4.97;;;;;;;6.45;100.00;62667.03;4989694;28;20287;-79
2022/09/21 04:04:22;;;;;;;6.07;5.07;;;;;;;6.41;100.00;62659.84;4978911;28;20209;-77
2022/09/21 04:06:49;;;;;;;6.20;4.57;;;;;;;6.48;100.00;62667.59;4983604;28;20232;-78
2022/09/21 04:09:16;;;;;;;5.07;4.57;;;;;;;6.52;100.00;62671.19;4988575;28;20273;-79
2022/09/21 04:11:45;;;;;;;5.53;4.68;;;;;;;6.53;100.00;62672.22;4987612;28;21626;-78
2022/09/21 04:14:14;;;;;;;5.20;4.38;;;;;;;6.55;100.00;62674.28;4983075;28;20208;-77
2022/09/21 04:16:41;;;;;;;4.55;4.28;;;;;;;6.60;100.00;62679.97;4986462;28;20204;-77
2022/09/21 04:19:08;;;;;;;4.30;4.00;;;;;;;6.66;100.00;62685.63;4988106;28;20222;-77
2022/09/21 04:21:35;;;;;;;4.38;4.03;;;;;;;6.72;100.00;62692.34;4985551;28;20224;-78
2022/09/21 04:24:03;;;;;;;4.20;3.90;;;;;;;6.75;100.00;62692.38;4970883;28;20276;-77
2022/09/21 04:26:32;;;;;;;4.15;3.85;;;;;;;6.76;100.00;62698.47;4964641;28;20212;-78
2022/09/21 04:29:00;;;;;;;4.88;3.33;;;;;;;6.82;100.00;62700.13;5006473;28;20454;-76
2022/09/21 04:31:29;;;;;;;4.88;4.35;;;;;;;6.89;100.00;62709.34;4996341;28;20204;-77
2022/09/21 04:33:57;;;;;;;4.72;4.35;;;;;;;6.98;100.00;62721.69;4986890;28;20431;-78
2022/09/21 04:36:26;;;;;;;4.78;4.35;;;;;;;7.11;100.00;62731.53;4977584;28;20272;-78
2022/09/21 04:38:53;;;;;;;3.35;3.15;;;;;;;7.19;100.00;62739.78;4968278;29;20215;-77
2022/09/21 04:41:20;;;;;;;8.73;3.90;;;;;;;7.27;100.00;62753.09;4978695;28;20206;-77
2022/09/21 04:43:48;;;;;;;4.28;3.75;;;;;;;7.26;100.00;62745.00;4997888;28;20216;-78
2022/09/21 04:46:17;;;;;;;5.38;3.95;;;;;;;7.27;100.00;62745.50;4973955;28;20200;-77
2022/09/21 04:48:46;;;;;;;3.67;3.38;;;;;;;7.38;100.00;62754.84;4993261;28;20559;-78
2022/09/21 04:51:14;;;;;;;3.80;3.60;;;;;;;7.43;100.00;62764.56;4991990;28;20203;-78
2022/09/21 04:53:42;;;;;;;3.78;3.55;;;;;;;7.52;100.00;62771.31;5002382;28;20224;-77
2022/09/21 04:56:13;;;;;;;3.92;3.67;;;;;;;7.62;100.00;62781.63;4985782;28;20203;-78
2022/09/21 04:58:39;;;;;;;3.83;3.13;;;;;;;7.73;100.00;62790.47;4985380;28;20290;-77
2022/09/21 05:01:06;;;;;;;4.93;3.10;;;;;;;7.82;100.00;62800.25;4999143;28;20207;-78
2022/09/21 05:03:33;;;;;;;7.85;3.75;;;;;;;7.94;100.00;62815.19;5005584;28;20523;-78
2022/09/21 05:06:02;;;;;;;3.85;3.40;;;;;;;8.02;100.00;62817.84;5006536;28;20383;-78
2022/09/21 05:11:17;;;;;;;3.08;2.88;;;;;;;8.21;100.00;62845.59;5005410;28;20214;-78
2022/09/21 05:13:44;;;;;;;2.95;2.75;;;;;;;8.43;100.00;62865.28;5006363;28;20291;-78
2022/09/21 05:16:11;;;;;;;2.33;2.20;;;;;;;8.65;100.00;62893.09;4994897;28;20254;-77
2022/09/21 05:18:38;;;;;;;6.40;3.65;;;;;;;8.76;100.00;62901.94;4980324;28;20470;-78
2022/09/21 05:21:06;;;;;;;4.65;4.32;;;;;;;8.81;100.00;62904.03;4974755;28;20267;-78
2022/09/21 05:23:33;;;;;;;8.35;4.50;;;;;;;8.85;100.00;62908.16;4971136;28;20224;-78
2022/09/21 05:26:00;;;;;;;4.32;3.92;;;;;;;8.92;100.00;62915.91;4972877;28;20266;-78
2022/09/21 05:28:28;;;;;;;8.25;4.15;;;;;;;8.76;100.00;62901.94;4984984;28;20223;-78
2022/09/21 05:31:00;;;;;;;5.32;4.20;;;;;;;8.44;100.00;62863.28;4983976;28;20382;-78
2022/09/21 05:33:30;;;;;;;7.03;4.43;;;;;;;8.42;100.00;62861.22;4988000;28;20223;-79
2022/09/21 05:36:05;;;;;;;7.55;4.15;;;;;;;8.38;100.00;62860.13;4986161;28;20196;-79
2022/09/21 05:38:34;;;;;;;7.10;4.57;;;;;;;8.36;100.00;62858.06;4990524;28;20235;-78
2022/09/21 05:41:02;;;;;;;7.00;4.53;;;;;;;8.36;100.00;62857.53;4986863;28;20255;-78
2022/09/21 05:43:29;;;;;;;5.00;4.53;;;;;;;8.34;100.00;62856.00;4985608;28;20216;-80
2022/09/21 05:46:03;;;;;;;5.28;4.82;;;;;;;8.44;100.00;62868.84;4987828;28;20235;-79
2022/09/21 05:48:36;;;;;;;8.27;5.00;;;;;;;8.49;100.00;62873.50;4968747;28;20501;-79
2022/09/21 05:51:10;;;;;;;5.07;4.57;;;;;;;8.53;100.00;62875.63;4987596;28;20208;-78
2022/09/21 05:53:48;;;;;;;5.30;4.82;;;;;;;8.57;100.00;62886.84;4981820;28;20254;-79
2022/09/21 05:56:29;;;;;;;5.72;4.68;;;;;;;8.82;100.00;62910.66;4981760;28;20202;-79
2022/09/21 05:59:06;;;;;;;5.28;4.78;;;;;;;8.77;100.00;62900.41;4984258;28;20243;-79
2022/09/21 06:01:46;;;;;;;5.82;5.25;;;;;;;8.72;100.00;62897.25;4984113;28;20251;-79
2022/09/21 06:04:13;;;;;;;5.72;5.28;;;;;;;8.62;100.00;62877.31;4980057;28;20212;-77
2022/09/21 06:06:41;;;;;;;3.97;3.67;;;;;;;8.78;100.00;62900.94;4968349;28;20196;-78
2022/09/21 06:09:10;;;;;;;8.35;5.40;;;;;;;8.93;100.00;62913.88;4986355;28;20279;-78
2022/09/21 06:11:37;;;;;;;9.60;5.57;;;;;;;8.91;100.00;62917.44;4987983;28;20196;-78
2022/09/21 06:14:04;;;;;;;6.15;4.00;;;;;;;9.05;100.00;62936.44;4992093;28;20200;-79
2022/09/21 06:16:37;;;;;;;10.82;4.78;;;;;;;9.01;100.00;62927.75;4986135;28;20200;-78
2022/09/21 06:19:04;;;;;;;5.05;4.18;;;;;;;9.31;100.00;62958.25;4989580;28;20413;-79
2022/09/21 06:21:31;;;;;;;5.38;3.30;;;;;;;9.29;100.00;62956.19;4981013;28;20201;-77
2022/09/21 06:23:58;;;;;;;1.60;1.50;;;;;;;9.54;99.05;62981.53;4980674;28;20200;-77
2022/09/21 06:26:27;;;;;;;1.13;1.13;;;;;;;10.00;92.74;63029.63;4985725;28;20247;-78
2022/09/21 06:28:54;;;;;;;1.58;1.48;;;;;;;9.92;91.74;63023.88;4988173;28;20228;-79
2022/09/21 06:31:21;;;;;;;1.13;1.02;;;;;;;10.02;89.64;63029.13;4987587;28;20516;-78
2022/09/21 06:33:48;;;;;;;0.68;0.68;;;;;;;9.91;87.50;63014.69;4989775;28;20591;-78
2022/09/21 06:36:16;;;;;;;2.33;1.10;;;;;;;10.23;86.68;63053.41;4982669;28;20207;-78
2022/09/21 06:38:43;;;;;;;0.80;0.80;;;;;;;10.18;85.89;63048.25;4988397;28;20315;-79
2022/09/21 06:41:10;;;;;;;0.90;0.90;;;;;;;10.33;84.44;63063.25;4989103;28;20200;-77
2022/09/21 06:43:38;;;;;;;0.77;0.77;;;;;;;10.35;84.33;63060.25;4982070;28;20267;-77
2022/09/21 06:46:06;;;;;;;0.70;0.70;;;;;;;10.60;81.76;63090.66;4968654;29;20212;-77
2022/09/21 06:48:34;;;;;;;0.90;0.90;;;;;;;10.83;79.59;63109.38;4986077;28;20231;-77
2022/09/21 06:51:02;;;;;;;0.80;0.80;;;;;;;10.90;78.88;63122.25;4988454;28;20196;-78
2022/09/21 06:53:30;;;;;;;0.80;0.80;;;;;;;10.98;79.35;63124.91;4985684;28;20223;-78
2022/09/21 06:56:01;;;;;;;6.40;1.58;;;;;;;10.85;80.97;63111.47;4976210;28;20232;-79
2022/09/21 06:58:29;;;;;;;4.22;1.02;;;;;;;11.08;78.90;63140.88;4967945;29;20224;-77
2022/09/21 07:00:58;;;;;;;0.70;0.70;;;;;;;11.25;77.87;63158.50;4970560;29;20207;-77
2022/09/21 07:03:25;;;;;;;1.15;0.93;;;;;;;11.12;80.13;63144.50;4982353;28;20364;-78
2022/09/21 07:05:53;;;;;;;0.70;0.70;;;;;;;11.24;79.72;63154.91;4988594;28;20204;-78
2022/09/21 07:08:20;;;;;;;1.25;1.15;;;;;;;11.62;76.37;63199.38;4987812;28;20246;-79
2022/09/21 07:10:46;;;;;;;3.13;1.08;;;;;;;11.89;74.07;63223.78;4990719;28;20236;-79
2022/09/21 07:13:15;;;;;;;0.80;0.80;;;;;;;11.96;75.30;63228.50;4984289;28;20232;-79
2022/09/21 07:15:41;;;;;;;0.82;0.82;;;;;;;11.55;77.03;63189.03;4987866;28;20192;-79
2022/09/21 07:18:13;;;;;;;1.65;0.63;;;;;;;11.92;76.15;63227.41;4975093;28;20248;-80
2022/09/21 07:20:40;;;;;;;1.23;1.13;;;;;;;11.73;80.50;63207.72;4968073;28;20189;-77
2022/09/21 07:23:13;;;;;;;3.90;1.00;;;;;;;11.59;79.34;63188.09;4968129;29;20221;-78
2022/09/21 07:25:39;;;;;;;2.55;1.23;;;;;;;11.18;81.55;63150.72;4971750;28;20228;-78
2022/09/21 07:28:06;;;;;;;1.70;1.60;;;;;;;11.35;83.33;63168.84;4984107;28;20290;-78
2022/09/21 07:30:34;;;;;;;2.92;1.35;;;;;;;11.00;86.07;63132.59;4972492;28;20212;-78
2022/09/21 07:33:01;;;;;;;2.25;1.65;;;;;;;11.41;84.70;63177.09;4968482;29;20231;-78
2022/09/21 07:35:29;;;;;;;1.20;1.10;;;;;;;11.56;82.11;63187.53;4972208;28;20251;-78
2022/09/21 07:37:58;;;;;;;1.25;1.15;;;;;;;11.80;77.62;63214.47;4986796;28;20230;-78
2022/09/21 07:40:25;;;;;;;1.45;1.40;;;;;;;11.95;79.00;63227.97;4987587;28;20207;-77
2022/09/21 07:42:52;;;;;;;1.65;1.50;;;;;;;11.89;80.37;63223.78;5007696;28;20278;-78
2022/09/21 07:45:19;;;;;;;3.30;1.63;;;;;;;11.27;85.41;63163.09;4985412;28;20212;-78
2022/09/21 07:47:46;;;;;;;1.10;1.10;;;;;;;11.37;83.81;63170.91;4981257;28;20596;-79
2022/09/21 07:50:13;;;;;;;1.58;1.48;;;;;;;11.51;82.12;63180.31;4984787;28;20215;-78
2022/09/21 07:52:42;;;;;;;1.23;1.23;;;;;;;10.99;87.42;63131.06;4988029;28;20226;-78
2022/09/21 07:55:09;;;;;;;1.50;1.50;;;;;;;11.19;86.11;63157.38;4986170;28;20219;-78
2022/09/21 08:00:21;;;;;;;1.42;1.40;;;;;;;11.61;81.08;63198.31;4985670;28;20239;-77
2022/09/21 08:02:48;;;;;;;1.60;1.60;;;;;;;12.13;79.00;63248.66;4982710;28;20295;-78
2022/09/21 08:05:15;;;;;;;1.30;1.30;;;;;;;11.88;79.54;63220.19;4988018;28;20206;-78
2022/09/21 08:07:43;;;;;;;1.55;1.48;;;;;;;11.17;84.11;63152.22;4988138;28;20220;-78
2022/09/21 08:10:10;;;;;;;1.52;1.42;;;;;;;11.22;85.37;63157.41;4985982;28;20239;-79
2022/09/21 08:12:37;;;;;;;1.65;1.63;;;;;;;11.75;81.22;63209.28;4971044;28;20255;-79
2022/09/21 08:15:05;;;;;;;1.80;1.70;;;;;;;12.01;77.98;63238.78;4967208;29;20497;-78
2022/09/21 08:17:32;;;;;;;1.50;1.50;;;;;;;11.56;76.13;63192.66;4968308;29;20552;-79
2022/09/21 08:19:59;;;;;;;1.15;1.15;;;;;;;11.56;77.96;63190.59;4973646;28;20278;-78
2022/09/21 08:22:26;;;;;;;1.30;1.20;;;;;;;11.96;76.99;63231.03;4987168;28;20236;-78
2022/09/21 08:24:54;;;;;;;2.05;1.45;;;;;;;11.62;76.86;63193.75;4989259;28;20203;-78
2022/09/21 08:27:22;;;;;;;0.85;0.85;;;;;;;11.60;77.93;63196.78;4988713;28;20220;-78
2022/09/21 08:29:48;;;;;;;1.83;1.73;;;;;;;11.77;75.85;63211.34;4970040;28;20439;-77
2022/09/21 08:32:15;;;;;;;1.30;1.30;;;;;;;12.06;72.57;63241.91;4968084;28;20524;-78
2022/09/21 08:34:42;;;;;;;8.27;1.73;;;;;;;12.35;73.03;63274.00;4967262;29;20212;-78
2022/09/21 08:37:09;;;;;;;1.38;1.30;;;;;;;12.60;71.29;63297.88;4967992;28;20262;-78
2022/09/21 08:39:36;;;;;;;1.38;1.38;;;;;;;12.43;70.21;63279.75;4987566;28;20200;-78
2022/09/21 08:42:29;;;;;;;1.27;1.27;;;;;;;11.79;72.91;63208.31;4986963;28;20220;-77
2022/09/21 08:45:00;;;;;;;1.73;1.63;;;;;;;12.10;72.01;63245.53;4987624;28;20192;-78
2022/09/21 08:47:35;;;;;;;1.48;1.40;;;;;;;12.37;72.58;63274.03;4980676;28;20223;-78
2022/09/21 08:50:04;;;;;;;1.40;1.40;;;;;;;12.70;71.05;63302.63;4988156;28;20250;-78
2022/09/21 08:52:33;;;;;;;1.60;1.50;;;;;;;12.84;69.50;63327.38;4987862;28;20220;-77
2022/09/21 08:55:03;;;;;;;1.52;1.52;;;;;;;12.16;72.39;63254.84;4984270;28;20200;-77
2022/09/21 08:57:33;;;;;;;1.70;1.60;;;;;;;11.99;74.28;63234.66;4976123;28;20223;-76
2022/09/21 09:00:02;;;;;;;1.45;1.45;;;;;;;12.11;73.77;63249.13;4984549;28;20204;-77
2022/09/21 09:02:49;;;;;;;1.77;1.67;;;;;;;12.43;70.44;63279.75;4986286;28;20207;-77
2022/09/21 09:05:32;;;;;;;2.05;1.63;;;;;;;12.47;71.03;63286.97;4980186;28;20219;-77
2022/09/21 09:08:18;;;;;;;1.83;1.73;;;;;;;12.76;67.51;63317.03;4966147;29;20235;-78
2022/09/21 09:10:56;;;;;;;1.20;1.20;;;;;;;12.86;65.26;63324.34;4982084;28;20232;-78
2022/09/21 09:13:48;;;;;;;1.65;1.30;;;;;;;12.98;64.37;63339.34;4966612;28;20224;-79
2022/09/21 09:16:23;;;;;;;1.20;1.20;;;;;;;13.20;61.45;63354.50;4976118;28;20215;-78
2022/09/21 09:18:53;;;;;;;1.23;1.23;;;;;;;12.78;66.24;63319.13;4984281;28;20204;-78
2022/09/21 09:21:24;;;;;;;1.42;1.33;;;;;;;12.92;68.99;63330.56;4983418;28;20235;-77
2022/09/21 09:23:59;;;;;;;0.75;0.75;;;;;;;12.28;67.53;63264.19;4985331;28;20192;-78
2022/09/21 09:26:33;;;;;;;1.23;1.10;;;;;;;12.75;66.59;63313.44;4981765;28;20250;-78
2022/09/21 09:29:09;;;;;;;1.17;1.17;;;;;;;13.19;65.28;63356.03;4986947;28;20226;-77
2022/09/21 09:31:38;;;;;;;1.20;1.20;;;;;;;12.73;67.76;63310.84;4980112;28;20203;-78
2022/09/21 09:34:12;;;;;;;1.33;1.27;;;;;;;12.78;68.88;63310.94;4981936;28;20207;-78
2022/09/21 09:36:44;;;;;;;1.02;1.02;;;;;;;12.45;70.04;63279.78;4981857;28;20258;-79
2022/09/21 09:39:14;;;;;;;1.13;1.13;;;;;;;12.19;71.34;63252.31;4985802;28;20555;-78
2022/09/21 09:42:00;;;;;;;1.73;1.63;;;;;;;12.46;72.12;63288.47;4985319;28;20196;-77
2022/09/21 09:44:47;;;;;;;1.33;1.15;;;;;;;12.66;69.77;63304.13;4985133;28;20267;-77
2022/09/21 09:47:26;;;;;;;1.17;1.10;;;;;;;12.95;68.68;63330.59;4986969;28;20219;-78
2022/09/21 09:50:03;;;;;;;1.30;1.30;;;;;;;13.09;66.08;63353.31;4978657;28;20291;-78
2022/09/21 09:52:31;;;;;;;5.22;1.30;;;;;;;13.05;64.40;63344.06;4972614;28;20279;-78
2022/09/21 09:54:58;;;;;;;1.15;1.15;;;;;;;12.75;66.65;63316.00;4977565;28;20211;-77
2022/09/21 09:57:29;;;;;;;1.30;1.30;;;;;;;12.28;67.95;63262.16;4985055;28;20227;-78
2022/09/21 10:00:00;;;;;;;1.27;1.27;;;;;;;12.68;65.52;63305.69;4988493;28;20251;-77
2022/09/21 10:02:28;;;;;;;1.20;1.20;;;;;;;12.69;64.86;63306.69;4988515;28;20228;-77
2022/09/21 10:05:04;;;;;;;1.35;1.30;;;;;;;13.04;63.36;63345.06;4984581;28;20204;-76
2022/09/21 10:07:36;;;;;;;1.20;1.10;;;;;;;12.82;60.76;63317.13;4978624;28;20420;-77
2022/09/21 10:10:03;;;;;;;1.17;1.02;;;;;;;12.75;61.19;63315.50;4977966;28;20414;-77
2022/09/21 10:12:31;;;;;;;1.38;1.27;;;;;;;12.67;62.15;63307.69;4990628;28;20216;-77
2022/09/21 10:15:00;;;;;;;1.10;1.10;;;;;;;12.50;64.72;63284.44;4988598;28;20223;-78
2022/09/21 10:17:27;;;;;;;1.10;1.10;;;;;;;12.32;65.37;63271.41;4983704;28;20243;-78
2022/09/21 10:20:00;;;;;;;1.35;1.30;;;;;;;12.85;63.65;63320.22;4975322;28;20256;-78
2022/09/21 10:22:29;;;;;;;1.45;1.40;;;;;;;13.27;60.41;63366.38;4973862;28;20228;-77
2022/09/21 10:24:58;;;;;;;1.00;1.00;;;;;;;13.53;57.89;63398.97;4971176;29;20209;-78
2022/09/21 10:27:27;;;;;;;0.85;0.85;;;;;;;13.16;59.86;63352.91;4971961;29;20224;-79
2022/09/21 10:29:55;;;;;;;1.75;1.20;;;;;;;13.16;59.91;63360.06;4972642;28;20228;-78
2022/09/21 10:32:25;;;;;;;3.22;1.13;;;;;;;13.54;59.83;63394.38;4983211;28;20228;-78
2022/09/21 10:35:16;;;;;;;0.90;0.90;;;;;;;13.72;59.96;63418.69;4971504;29;20560;-77
2022/09/21 10:37:45;;;;;;;1.13;1.13;;;;;;;13.42;58.66;63389.59;4990068;28;20220;-75
2022/09/21 10:40:27;;;;;;;0.80;0.80;;;;;;;13.20;58.58;63359.63;4983410;28;20196;-77
2022/09/21 10:42:57;;;;;;;1.10;1.10;;;;;;;12.48;62.05;63284.94;4989941;28;20239;-77
2022/09/21 10:45:26;;;;;;;1.05;1.05;;;;;;;12.82;61.31;63315.59;4993249;28;20235;-79
2022/09/21 10:47:57;;;;;;;1.20;0.90;;;;;;;12.95;60.31;63338.25;4986434;28;20246;-78
2022/09/21 10:50:27;;;;;;;0.82;0.82;;;;;;;13.09;60.39;63350.25;4987302;28;20254;-77
2022/09/21 10:53:00;;;;;;;0.88;0.88;;;;;;;13.37;58.71;63376.75;4986719;28;20228;-79
2022/09/21 10:55:30;;;;;;;0.90;0.90;;;;;;;13.24;58.08;63363.75;4985882;28;20235;-79
2022/09/21 10:57:58;;;;;;;1.40;1.00;;;;;;;13.38;56.36;63378.28;4984825;28;20271;-77
2022/09/21 11:00:34;;;;;;;2.28;0.65;;;;;;;13.56;53.85;63396.47;4990873;28;20425;-78
2022/09/21 11:03:25;;;;;;;0.60;0.60;;;;;;;13.92;53.08;63436.38;4988755;28;20414;-78
2022/09/21 11:05:55;;;;;;;0.75;0.70;;;;;;;14.18;52.05;63465.94;4987953;28;20870;-80
2022/09/21 11:08:27;;;;;;;0.68;0.68;;;;;;;14.51;51.05;63492.53;4988144;28;20223;-78
2022/09/21 11:11:07;;;;;;;0.28;0.28;;;;;;;14.16;50.26;63458.75;4988383;28;20212;-78
2022/09/21 11:13:39;;;;;;;0.70;0.70;;;;;;;13.74;53.45;63415.13;4990098;28;20266;-79
2022/09/21 11:16:16;;;;;;;0.73;0.73;;;;;;;13.06;54.54;63340.00;4988082;28;20204;-77
2022/09/21 11:18:54;;;;;;;1.25;1.10;;;;;;;13.30;55.34;63366.91;4996640;28;20207;-78
2022/09/21 11:21:35;;;;;;;0.82;0.70;;;;;;;12.95;56.41;63331.13;5006692;28;20203;-78
2022/09/21 11:24:12;;;;;;;0.70;0.70;;;;;;;12.77;57.42;63318.06;5003795;28;20196;-79
2022/09/21 11:26:45;;;;;;;4.28;0.80;;;;;;;13.05;56.68;63348.66;4979181;28;20204;-78
2022/09/21 11:29:17;;;;;;;0.70;0.70;;;;;;;13.42;56.75;63387.56;4988455;28;20279;-79
2022/09/21 11:32:02;;;;;;;0.60;0.60;;;;;;;13.87;53.18;63426.06;4987373;28;20207;-78
2022/09/21 11:35:07;;;;;;;0.90;0.90;;;;;;;14.12;52.74;63454.56;4989789;28;20207;-78
2022/09/21 11:37:58;;;;;;;0.95;0.70;;;;;;;13.81;52.71;63419.84;4950583;28;20224;-78
2022/09/21 11:40:35;;;;;;;0.73;0.73;;;;;;;13.79;52.01;63425.97;4970206;29;20196;-77
2022/09/21 11:43:16;;;;;;;0.70;0.70;;;;;;;13.51;51.61;63391.28;4971252;29;20559;-78
2022/09/21 11:45:56;;;;;;;0.85;0.82;;;;;;;13.92;50.69;63436.38;4968956;28;20244;-78
2022/09/21 11:48:33;;;;;;;0.93;0.93;;;;;;;13.95;50.33;63439.50;4977260;28;20232;-77
2022/09/21 11:51:15;;;;;;;0.65;0.65;;;;;;;14.05;51.10;63447.31;5007592;28;20231;-78
2022/09/21 11:53:59;;;;;;;1.10;1.00;;;;;;;13.64;51.12;63405.28;5005662;28;20215;-79
2022/09/21 11:56:42;;;;;;;0.90;0.90;;;;;;;13.57;51.79;63397.50;4989304;28;20493;-77